createdAt,value
2022-08-29T00:01:22.949Z,16.00
2022-08-29T00:03:50.313Z,13.13
2022-08-29T00:06:17.333Z,13.93
2022-08-29T00:08:44.292Z,15.97
2022-08-29T00:11:11.331Z,17.40
2022-08-29T00:13:38.253Z,21.03
2022-08-29T00:16:05.702Z,14.60
2022-08-29T00:18:33.258Z,18.93
2022-08-29T00:21:00.177Z,24.10
2022-08-29T00:23:27.087Z,12.97
2022-08-29T00:25:54.777Z,14.17
2022-08-29T00:28:21.824Z,23.03
2022-08-29T00:30:49.071Z,27.93
2022-08-29T00:33:17.012Z,16.70
2022-08-29T00:35:46.299Z,18.20
2022-08-29T00:38:18.298Z,17.97
2022-08-29T00:40:55.663Z,18.17
2022-08-29T00:43:31.326Z,14.23
2022-08-29T00:46:18.788Z,15.20
2022-08-29T00:48:59.459Z,17.53
2022-08-29T00:51:26.405Z,17.80
2022-08-29T00:54:01.208Z,16.93
2022-08-29T00:56:29.336Z,12.13
2022-08-29T00:59:07.858Z,13.77
2022-08-29T01:01:35.060Z,23.43
2022-08-29T01:04:02.020Z,15.33
2022-08-29T01:06:32.648Z,20.83
2022-08-29T01:08:59.686Z,23.23
2022-08-29T01:11:48.264Z,14.73
2022-08-29T01:14:18.471Z,14.60
2022-08-29T01:16:47.218Z,18.83
2022-08-29T01:20:00.873Z,18.63
2022-08-29T01:23:13.622Z,17.70
2022-08-29T01:25:48.587Z,12.83
2022-08-29T01:28:37.579Z,19.93
2022-08-29T01:31:46.942Z,16.43
2022-08-29T01:34:04.878Z,15.43
2022-08-29T01:36:50.356Z,24.47
2022-08-29T01:39:19.384Z,15.47
2022-08-29T01:41:46.292Z,25.70
2022-08-29T01:44:20.238Z,17.07
2022-08-29T01:46:58.032Z,20.63
2022-08-29T01:49:28.710Z,22.23
2022-08-29T01:51:55.654Z,14.97
2022-08-29T01:54:22.586Z,14.37
2022-08-29T01:56:52.812Z,27.93
2022-08-29T01:59:25.385Z,18.07
2022-08-29T02:02:07.446Z,16.67
2022-08-29T02:04:35.217Z,28.70
2022-08-29T02:07:03.316Z,25.90
2022-08-29T02:09:30.439Z,22.57
2022-08-29T02:12:00.230Z,17.70
2022-08-29T02:14:27.126Z,18.33
2022-08-29T02:16:54.293Z,27.27
2022-08-29T02:19:21.179Z,22.17
2022-08-29T02:21:51.076Z,14.90
2022-08-29T02:24:26.237Z,17.23
2022-08-29T02:26:55.435Z,21.77
2022-08-29T02:29:22.862Z,18.30
2022-08-29T02:31:49.805Z,16.77
2022-08-29T02:34:17.580Z,28.30
2022-08-29T02:36:44.793Z,26.63
2022-08-29T02:39:15.072Z,19.37
2022-08-29T02:41:42.066Z,16.50
2022-08-29T02:44:11.600Z,21.30
2022-08-29T02:46:38.632Z,20.93
2022-08-29T02:49:05.635Z,24.83
2022-08-29T02:51:33.740Z,22.17
2022-08-29T02:54:02.027Z,29.47
2022-08-29T02:56:29.863Z,17.80
2022-08-29T02:58:57.695Z,15.20
2022-08-29T03:01:26.131Z,31.07
2022-08-29T03:03:53.670Z,16.97
2022-08-29T03:06:21.917Z,21.93
2022-08-29T03:08:50.363Z,25.53
2022-08-29T03:11:18.106Z,23.80
2022-08-29T03:13:45.829Z,31.40
2022-08-29T03:16:13.549Z,24.07
2022-08-29T03:18:40.519Z,24.10
2022-08-29T03:21:17.231Z,22.77
2022-08-29T03:23:44.123Z,22.00
2022-08-29T03:26:11.040Z,20.87
2022-08-29T03:28:37.930Z,22.77
2022-08-29T03:31:05.168Z,24.43
2022-08-29T03:33:32.093Z,19.60
2022-08-29T03:35:59.079Z,22.07
2022-08-29T03:38:25.979Z,26.07
2022-08-29T03:40:53.414Z,21.97
2022-08-29T03:43:25.055Z,19.20
2022-08-29T03:45:52.576Z,23.60
2022-08-29T03:48:19.470Z,30.97
2022-08-29T03:50:46.398Z,24.40
2022-08-29T03:53:13.500Z,30.70
2022-08-29T03:55:40.434Z,18.13
2022-08-29T03:58:07.863Z,16.83
2022-08-29T04:00:34.860Z,28.43
2022-08-29T04:03:01.977Z,28.40
2022-08-29T04:05:28.939Z,23.83
2022-08-29T04:07:59.352Z,28.73
2022-08-29T04:10:34.468Z,31.03
2022-08-29T04:13:01.652Z,19.80
2022-08-29T04:15:29.432Z,19.33
2022-08-29T04:18:03.393Z,30.13
2022-08-29T04:20:34.051Z,19.50
2022-08-29T04:23:01.391Z,34.60
2022-08-29T04:25:37.224Z,27.27
2022-08-29T04:28:11.028Z,19.97
2022-08-29T04:30:39.755Z,30.47
2022-08-29T04:33:06.995Z,20.20
2022-08-29T04:35:35.533Z,22.53
2022-08-29T04:38:02.480Z,30.17
2022-08-29T04:40:29.633Z,32.20
2022-08-29T04:42:58.105Z,27.90
2022-08-29T04:45:25.674Z,25.00
2022-08-29T04:47:52.963Z,21.87
2022-08-29T04:50:23.033Z,27.07
2022-08-29T04:52:52.397Z,26.13
2022-08-29T04:55:22.676Z,25.03
2022-08-29T04:57:56.237Z,21.30
2022-08-29T05:00:28.040Z,24.80
2022-08-29T05:02:55.793Z,20.33
2022-08-29T05:05:23.092Z,21.53
2022-08-29T05:07:49.997Z,19.00
2022-08-29T05:10:20.391Z,20.47
2022-08-29T05:12:47.759Z,17.20
2022-08-29T05:15:15.866Z,24.40
2022-08-29T05:17:43.611Z,18.37
2022-08-29T05:20:12.061Z,31.07
2022-08-29T05:22:40.355Z,23.37
2022-08-29T05:25:07.872Z,19.93
2022-08-29T05:27:34.865Z,19.20
2022-08-29T05:30:04.107Z,19.07
2022-08-29T05:32:31.041Z,20.40
2022-08-29T05:34:58.881Z,19.13
2022-08-29T05:37:26.371Z,14.57
2022-08-29T05:39:53.336Z,18.20
2022-08-29T05:42:22.171Z,15.23
2022-08-29T05:44:49.648Z,19.40
2022-08-29T05:47:18.951Z,19.83
2022-08-29T05:49:47.114Z,13.07
2022-08-29T05:52:17.925Z,19.43
2022-08-29T05:54:45.431Z,17.07
2022-08-29T05:57:18.909Z,14.67
2022-08-29T05:59:48.014Z,21.33
2022-08-29T06:02:15.557Z,20.30
2022-08-29T06:04:42.559Z,26.10
2022-08-29T06:07:10.360Z,25.20
2022-08-29T06:09:39.487Z,14.83
2022-08-29T06:12:08.074Z,18.80
2022-08-29T06:14:35.155Z,13.13
2022-08-29T06:17:02.398Z,17.07
2022-08-29T06:19:34.692Z,19.10
2022-08-29T06:22:03.601Z,20.00
2022-08-29T06:24:38.726Z,18.60
2022-08-29T06:27:06.153Z,17.20
2022-08-29T06:29:33.104Z,18.87
2022-08-29T06:32:09.877Z,21.80
2022-08-29T06:34:36.861Z,13.50
2022-08-29T06:37:03.804Z,16.63
2022-08-29T06:39:30.804Z,14.27
2022-08-29T06:41:57.750Z,16.40
2022-08-29T06:44:25.122Z,14.50
2022-08-29T06:46:52.233Z,9.93
2022-08-29T06:49:20.591Z,16.60
2022-08-29T06:51:57.430Z,12.57
2022-08-29T06:54:28.082Z,16.47
2022-08-29T06:56:56.553Z,17.67
2022-08-29T06:59:23.607Z,16.33
2022-08-29T07:01:50.746Z,20.10
2022-08-29T07:04:20.627Z,20.63
2022-08-29T07:06:48.319Z,13.20
2022-08-29T07:09:15.332Z,25.23
2022-08-29T07:11:43.132Z,13.50
2022-08-29T07:14:11.706Z,13.07
2022-08-29T07:16:39.668Z,16.73
2022-08-29T07:19:10.125Z,12.33
2022-08-29T07:21:38.116Z,8.67
2022-08-29T07:24:05.946Z,5.83
2022-08-29T07:26:38.825Z,8.53
2022-08-29T07:29:13.070Z,9.60
2022-08-29T07:31:40.159Z,8.83
2022-08-29T07:34:07.663Z,7.90
2022-08-29T07:36:35.880Z,8.53
2022-08-29T07:39:08.603Z,6.97
2022-08-29T07:41:35.854Z,5.03
2022-08-29T07:44:03.012Z,5.43
2022-08-29T07:46:31.498Z,7.37
2022-08-29T07:49:00.145Z,5.00
2022-08-29T07:51:28.526Z,5.40
2022-08-29T07:53:56.683Z,5.90
2022-08-29T07:56:28.175Z,4.93
2022-08-29T07:58:56.607Z,4.07
2022-08-29T08:01:24.705Z,4.57
2022-08-29T08:03:53.020Z,4.43
2022-08-29T08:06:27.364Z,5.60
2022-08-29T08:08:55.398Z,3.40
2022-08-29T08:11:24.838Z,5.80
2022-08-29T08:13:53.776Z,3.40
2022-08-29T08:16:25.003Z,3.17
2022-08-29T08:18:53.310Z,5.37
2022-08-29T08:21:20.679Z,3.13
2022-08-29T08:23:47.655Z,3.50
2022-08-29T08:26:15.273Z,4.80
2022-08-29T08:28:43.685Z,4.13
2022-08-29T08:31:14.261Z,5.57
2022-08-29T08:33:42.727Z,3.77
2022-08-29T08:36:22.563Z,6.00
2022-08-29T08:38:51.421Z,4.23
2022-08-29T08:41:29.613Z,3.70
2022-08-29T08:44:07.069Z,5.00
2022-08-29T08:46:43.078Z,3.57
2022-08-29T08:49:38.620Z,3.47
2022-08-29T08:52:18.643Z,3.37
2022-08-29T08:55:20.892Z,5.60
2022-08-29T08:58:01.451Z,2.80
2022-08-29T09:00:38.318Z,4.70
2022-08-29T09:03:17.034Z,5.00
2022-08-29T09:06:15.752Z,4.27
2022-08-29T09:09:34.364Z,4.17
2022-08-29T09:12:32.518Z,8.03
2022-08-29T09:15:07.871Z,4.37
2022-08-29T09:18:01.381Z,3.90
2022-08-29T09:20:34.120Z,3.40
2022-08-29T09:23:07.469Z,3.03
2022-08-29T09:25:36.374Z,6.30
2022-08-29T09:28:07.225Z,5.13
2022-08-29T09:30:36.740Z,5.20
2022-08-29T09:33:08.901Z,13.20
2022-08-29T09:35:44.369Z,11.90
2022-08-29T09:38:23.966Z,5.50
2022-08-29T09:40:56.933Z,5.77
2022-08-29T09:43:39.062Z,3.67
2022-08-29T09:46:10.911Z,3.47
2022-08-29T09:48:42.130Z,2.93
2022-08-29T09:51:22.200Z,3.30
2022-08-29T09:53:49.395Z,3.43
2022-08-29T09:56:25.136Z,3.80
2022-08-29T09:59:11.786Z,6.73
2022-08-29T10:01:39.553Z,3.83
2022-08-29T10:04:08.054Z,3.00
2022-08-29T10:06:45.030Z,3.73
2022-08-29T10:09:28.038Z,3.53
2022-08-29T10:12:16.829Z,6.17
2022-08-29T10:14:54.957Z,5.00
2022-08-29T10:17:56.461Z,3.33
2022-08-29T10:20:40.397Z,3.47
2022-08-29T10:23:30.927Z,4.03
2022-08-29T10:26:04.983Z,3.10
2022-08-29T10:28:43.082Z,4.83
2022-08-29T10:31:19.912Z,3.57
2022-08-29T10:34:11.231Z,3.23
2022-08-29T10:36:40.684Z,2.90
2022-08-29T10:39:19.242Z,4.43
2022-08-29T10:42:11.638Z,2.90
2022-08-29T10:45:25.351Z,5.50
2022-08-29T10:48:06.764Z,3.53
2022-08-29T10:51:05.369Z,4.43
2022-08-29T10:53:44.139Z,3.90
2022-08-29T10:56:28.623Z,2.83
2022-08-29T10:59:18.186Z,2.60
2022-08-29T11:02:01.710Z,2.80
2022-08-29T11:04:37.876Z,3.60
2022-08-29T11:07:16.341Z,3.30
2022-08-29T11:09:58.941Z,2.60
2022-08-29T11:12:55.686Z,2.60
2022-08-29T11:15:44.974Z,2.60
2022-08-29T11:18:59.100Z,2.70
2022-08-29T11:21:39.435Z,2.77
2022-08-29T11:24:07.408Z,2.80
2022-08-29T11:26:43.163Z,3.90
2022-08-29T11:29:50.833Z,3.47
2022-08-29T11:32:50.749Z,2.83
2022-08-29T11:36:02.449Z,3.30
2022-08-29T11:39:05.304Z,3.80
2022-08-29T11:41:38.701Z,4.83
2022-08-29T11:44:29.827Z,3.60
2022-08-29T11:46:57.831Z,3.00
2022-08-29T11:49:32.053Z,2.90
2022-08-29T11:52:18.907Z,3.13
2022-08-29T11:55:16.195Z,3.10
2022-08-29T11:58:22.988Z,3.47
2022-08-29T12:00:56.157Z,3.67
2022-08-29T12:03:35.670Z,3.00
2022-08-29T12:06:39.700Z,2.60
2022-08-29T12:09:13.828Z,4.03
2022-08-29T12:12:02.411Z,5.87
2022-08-29T12:14:43.831Z,3.07
2022-08-29T12:17:58.260Z,3.47
2022-08-29T12:20:38.057Z,3.60
2022-08-29T12:23:11.206Z,4.07
2022-08-29T12:28:58.136Z,2.93
2022-08-29T12:32:17.821Z,4.07
2022-08-29T12:35:22.430Z,3.40
2022-08-29T12:38:50.010Z,3.53
2022-08-29T12:41:56.557Z,3.87
2022-08-29T12:44:37.427Z,3.20
2022-08-29T12:47:25.178Z,3.83
2022-08-29T12:49:57.377Z,3.23
2022-08-29T12:52:31.691Z,4.40
2022-08-29T12:55:23.817Z,3.27
2022-08-29T12:57:56.922Z,5.37
2022-08-29T13:00:29.109Z,3.33
2022-08-29T13:03:05.381Z,3.57
2022-08-29T13:05:41.954Z,3.30
2022-08-29T13:08:26.299Z,3.30
2022-08-29T13:11:01.464Z,3.43
2022-08-29T13:13:30.008Z,2.90
2022-08-29T13:16:01.902Z,4.77
2022-08-29T13:18:31.155Z,3.20
2022-08-29T13:21:14.006Z,3.40
2022-08-29T13:23:47.188Z,3.10
2022-08-29T13:26:14.244Z,4.80
2022-08-29T13:28:59.556Z,3.10
2022-08-29T13:31:36.255Z,3.53
2022-08-29T13:34:19.617Z,5.00
2022-08-29T13:37:00.596Z,3.27
2022-08-29T13:39:43.465Z,4.00
2022-08-29T13:42:20.562Z,4.47
2022-08-29T13:44:51.787Z,4.23
2022-08-29T13:47:40.430Z,2.43
2022-08-29T13:50:13.240Z,3.13
2022-08-29T13:52:40.172Z,3.00
2022-08-29T13:55:09.863Z,7.27
2022-08-29T13:57:40.924Z,3.40
2022-08-29T14:00:11.689Z,9.20
2022-08-29T14:02:44.626Z,3.60
2022-08-29T14:05:13.703Z,4.70
2022-08-29T14:07:43.314Z,5.83
2022-08-29T14:10:12.984Z,3.80
2022-08-29T14:12:40.047Z,3.77
2022-08-29T14:15:10.716Z,4.13
2022-08-29T14:17:40.977Z,3.50
2022-08-29T14:20:12.475Z,4.37
2022-08-29T14:22:40.016Z,3.97
2022-08-29T14:25:10.677Z,3.37
2022-08-29T14:27:38.682Z,4.17
2022-08-29T14:30:08.954Z,3.30
2022-08-29T14:32:35.920Z,3.97
2022-08-29T14:35:04.534Z,3.60
2022-08-29T14:37:33.160Z,4.67
2022-08-29T14:40:00.143Z,3.07
2022-08-29T14:42:27.402Z,3.60
2022-08-29T14:44:54.310Z,10.37
2022-08-29T14:47:21.236Z,3.90
2022-08-29T14:49:48.133Z,4.50
2022-08-29T14:52:15.257Z,4.07
2022-08-29T14:54:43.136Z,3.67
2022-08-29T14:57:11.224Z,3.67
2022-08-29T14:59:40.565Z,5.63
2022-08-29T15:02:09.955Z,7.03
2022-08-29T15:04:37.966Z,3.90
2022-08-29T15:07:11.789Z,5.73
2022-08-29T15:09:41.884Z,4.97
2022-08-29T15:12:09.226Z,5.90
2022-08-29T15:14:36.246Z,8.27
2022-08-29T15:17:06.469Z,9.63
2022-08-29T15:22:22.767Z,3.80
2022-08-29T15:24:51.349Z,4.17
2022-08-29T15:27:26.860Z,6.13
2022-08-29T15:29:55.430Z,7.30
2022-08-29T15:32:22.532Z,10.33
2022-08-29T15:34:49.751Z,4.53
2022-08-29T15:37:16.806Z,6.30
2022-08-29T15:39:43.709Z,7.83
2022-08-29T15:42:12.128Z,6.03
2022-08-29T15:44:44.312Z,4.90
2022-08-29T15:47:11.522Z,6.10
2022-08-29T15:49:39.502Z,5.50
2022-08-29T15:52:06.577Z,15.83
2022-08-29T15:54:33.509Z,9.03
2022-08-29T15:57:00.424Z,7.50
2022-08-29T15:59:54.434Z,4.57
2022-08-29T16:02:15.117Z,7.03
2022-08-29T16:04:47.472Z,4.70
2022-08-29T16:07:16.840Z,4.80
2022-08-29T16:09:44.941Z,5.90
2022-08-29T16:12:11.927Z,4.10
2022-08-29T16:14:58.544Z,4.63
2022-08-29T16:17:29.641Z,4.23
2022-08-29T16:19:56.815Z,5.67
2022-08-29T16:22:24.385Z,5.90
2022-08-29T16:24:51.294Z,5.30
2022-08-29T16:27:22.008Z,6.03
2022-08-29T16:29:48.916Z,9.50
2022-08-29T16:32:16.288Z,7.60
2022-08-29T16:34:43.479Z,6.30
2022-08-29T16:37:10.751Z,5.43
2022-08-29T16:39:37.661Z,4.87
2022-08-29T16:42:04.687Z,5.03
2022-08-29T16:44:33.150Z,5.37
2022-08-29T16:47:00.088Z,5.63
2022-08-29T16:49:27.185Z,5.77
2022-08-29T16:51:54.089Z,6.40
2022-08-29T16:54:20.998Z,6.80
2022-08-29T16:56:47.938Z,5.60
2022-08-29T16:59:14.974Z,5.40
2022-08-29T17:01:46.175Z,4.70
2022-08-29T17:04:22.274Z,5.80
2022-08-29T17:06:49.508Z,6.73
2022-08-29T17:09:20.296Z,9.70
2022-08-29T17:11:47.836Z,5.93
2022-08-29T17:14:17.294Z,6.10
2022-08-29T17:16:47.592Z,6.00
2022-08-29T17:19:15.162Z,5.77
2022-08-29T17:21:43.228Z,9.60
2022-08-29T17:24:11.139Z,6.50
2022-08-29T17:26:42.125Z,6.87
2022-08-29T17:29:10.047Z,7.10
2022-08-29T17:31:38.931Z,5.90
2022-08-29T17:34:08.167Z,5.77
2022-08-29T17:36:36.902Z,8.73
2022-08-29T17:39:06.092Z,14.87
2022-08-29T17:41:33.432Z,6.07
2022-08-29T17:44:02.488Z,6.43
2022-08-29T17:46:29.854Z,9.67
2022-08-29T17:48:57.159Z,7.70
2022-08-29T17:51:24.248Z,7.87
2022-08-29T17:53:51.815Z,9.87
2022-08-29T17:56:26.417Z,7.40
2022-08-29T17:58:53.385Z,9.27
2022-08-29T18:01:20.397Z,5.50
2022-08-29T18:03:47.380Z,7.17
2022-08-29T18:06:15.330Z,5.83
2022-08-29T18:08:44.096Z,5.90
2022-08-29T18:11:16.539Z,5.17
2022-08-29T18:13:44.127Z,4.90
2022-08-29T18:16:12.044Z,4.20
2022-08-29T18:18:41.228Z,4.10
2022-08-29T18:21:08.817Z,4.87
2022-08-29T18:23:36.391Z,7.00
2022-08-29T18:26:04.087Z,7.07
2022-08-29T18:28:31.465Z,6.37
2022-08-29T18:30:59.000Z,7.50
2022-08-29T18:33:38.908Z,6.67
2022-08-29T18:36:11.929Z,5.00
2022-08-29T18:38:38.852Z,5.73
2022-08-29T18:41:06.450Z,4.37
2022-08-29T18:43:34.754Z,5.00
2022-08-29T18:46:03.739Z,4.80
2022-08-29T18:48:31.348Z,8.57
2022-08-29T18:50:59.665Z,6.47
2022-08-29T18:53:31.010Z,7.77
2022-08-29T18:56:00.199Z,8.27
2022-08-29T18:58:30.972Z,5.73
2022-08-29T19:00:59.707Z,5.43
2022-08-29T19:03:26.955Z,6.80
2022-08-29T19:05:53.975Z,7.77
2022-08-29T19:08:24.721Z,11.17
2022-08-29T19:10:55.299Z,5.93
2022-08-29T19:13:25.318Z,7.33
2022-08-29T19:15:56.741Z,6.23
2022-08-29T19:18:23.721Z,5.77
2022-08-29T19:21:02.427Z,5.60
2022-08-29T19:23:38.263Z,5.60
2022-08-29T19:26:34.959Z,7.27
2022-08-29T19:29:12.550Z,7.90
2022-08-29T19:31:41.184Z,6.80
2022-08-29T19:34:08.515Z,6.40
2022-08-29T19:36:36.478Z,6.23
2022-08-29T19:39:03.651Z,6.33
2022-08-29T19:41:34.285Z,5.80
2022-08-29T19:44:01.280Z,6.20
2022-08-29T19:46:28.198Z,6.43
2022-08-29T19:48:55.396Z,9.67
2022-08-29T19:51:24.425Z,8.50
2022-08-29T19:53:53.520Z,7.50
2022-08-29T19:56:20.452Z,6.00
2022-08-29T19:58:47.620Z,6.97
2022-08-29T20:01:16.947Z,13.13
2022-08-29T20:03:43.994Z,9.17
2022-08-29T20:06:12.227Z,16.07
2022-08-29T20:08:45.462Z,7.13
2022-08-29T20:11:21.100Z,10.03
2022-08-29T20:13:51.149Z,7.30
2022-08-29T20:16:22.394Z,11.30
2022-08-29T20:18:52.106Z,9.40
2022-08-29T20:21:20.904Z,10.17
2022-08-29T20:23:52.858Z,7.20
2022-08-29T20:26:24.512Z,7.73
2022-08-29T20:28:52.532Z,10.83
2022-08-29T20:31:20.270Z,8.93
2022-08-29T20:33:48.792Z,18.17
2022-08-29T20:36:38.621Z,10.17
2022-08-29T20:39:07.706Z,9.00
2022-08-29T20:41:34.660Z,7.63
2022-08-29T20:44:06.922Z,12.40
2022-08-29T20:46:40.254Z,7.87
2022-08-29T20:49:09.599Z,7.07
2022-08-29T20:51:37.579Z,8.30
2022-08-29T20:54:06.161Z,10.20
2022-08-29T20:56:33.306Z,8.33
2022-08-29T20:59:00.215Z,8.90
2022-08-29T21:01:27.230Z,7.50
2022-08-29T21:04:13.011Z,15.00
2022-08-29T21:06:39.932Z,7.80
2022-08-29T21:09:07.386Z,10.57
2022-08-29T21:11:34.448Z,6.80
2022-08-29T21:14:01.379Z,10.70
2022-08-29T21:16:28.633Z,8.17
2022-08-29T21:18:55.655Z,11.17
2022-08-29T21:21:24.946Z,7.57
2022-08-29T21:23:52.332Z,8.60
2022-08-29T21:26:19.242Z,8.63
2022-08-29T21:28:47.224Z,7.03
2022-08-29T21:31:15.462Z,7.60
2022-08-29T21:33:45.428Z,12.30
2022-08-29T21:36:19.162Z,8.57
2022-08-29T21:38:48.158Z,7.00
2022-08-29T21:41:15.864Z,6.97
2022-08-29T21:43:43.020Z,5.70
2022-08-29T21:46:29.793Z,9.13
2022-08-29T21:49:00.129Z,11.63
2022-08-29T21:51:28.376Z,7.60
2022-08-29T21:53:57.486Z,10.13
2022-08-29T21:56:26.888Z,5.57
2022-08-29T21:58:55.109Z,6.57
2022-08-29T22:01:27.170Z,5.00
2022-08-29T22:03:54.592Z,9.00
2022-08-29T22:06:21.949Z,7.23
2022-08-29T22:08:49.330Z,8.30
2022-08-29T22:11:24.936Z,6.87
2022-08-29T22:14:06.191Z,6.33
2022-08-29T22:16:33.594Z,5.30
2022-08-29T22:19:03.949Z,5.83
2022-08-29T22:21:35.981Z,6.00
2022-08-29T22:24:03.756Z,5.27
2022-08-29T22:26:30.840Z,3.70
2022-08-29T22:28:57.750Z,5.83
2022-08-29T22:31:24.920Z,3.90
2022-08-29T22:33:51.990Z,4.03
2022-08-29T22:36:20.045Z,3.97
2022-08-29T22:38:47.734Z,5.10
2022-08-29T22:41:23.596Z,3.60
2022-08-29T22:44:16.483Z,3.20
2022-08-29T22:46:43.947Z,14.07
2022-08-29T22:49:10.939Z,3.40
2022-08-29T22:51:37.927Z,3.80
2022-08-29T22:54:23.867Z,7.30
2022-08-29T22:56:50.881Z,4.40
2022-08-29T22:59:21.624Z,3.30
2022-08-29T23:01:48.640Z,3.43
2022-08-29T23:04:15.635Z,4.53
2022-08-29T23:06:42.632Z,3.37
2022-08-29T23:09:10.488Z,3.80
2022-08-29T23:11:37.635Z,4.83
2022-08-29T23:14:06.787Z,3.40
2022-08-29T23:16:34.835Z,4.50
2022-08-29T23:19:02.444Z,4.10
2022-08-29T23:21:31.114Z,5.27
2022-08-29T23:23:58.506Z,4.70
2022-08-29T23:26:26.554Z,5.93
2022-08-29T23:28:53.860Z,3.30
2022-08-29T23:31:22.539Z,3.90
2022-08-29T23:33:50.227Z,3.57
2022-08-29T23:36:18.520Z,3.30
2022-08-29T23:38:45.652Z,7.50
2022-08-29T23:41:13.581Z,4.07
2022-08-29T23:43:41.361Z,3.03
2022-08-29T23:46:08.727Z,3.90
2022-08-29T23:48:36.152Z,4.53
2022-08-29T23:51:09.026Z,3.67
2022-08-29T23:53:36.215Z,4.20
2022-08-29T23:56:16.159Z,3.50
2022-08-29T23:58:43.258Z,10.97
